Time;durP1;ratioP1;P1;durP2;ratioP2;P2;SDS_P1;SDS_P2;PMS_P1;PMS_P2;Temp;Humidity;BMP_temperature;BMP_pressure;BME280_temperature;BME280_humidity;BME280_pressure;Samples;Min_cycle;Max_cycle;Signal;HPM_P1;HPM_P2
2022/12/09 00:02:14;;;;;;;53.75;33.33;;;;;;;-1.97;79.71;100529.84;1745422;81;21634;-85
2022/12/09 00:04:41;;;;;;;48.02;31.05;;;;;;;-1.98;79.79;100531.02;1733611;81;21048;-83
2022/12/09 00:07:08;;;;;;;47.85;30.43;;;;;;;-2.00;79.76;100534.77;1736769;81;22525;-83
2022/12/09 00:09:35;;;;;;;41.20;27.95;;;;;;;-2.02;79.80;100538.03;1704393;83;21294;-83
2022/12/09 00:12:01;;;;;;;38.67;26.37;;;;;;;-2.03;79.83;100544.86;1711057;83;21064;-83
2022/12/09 00:14:28;;;;;;;42.83;27.95;;;;;;;-2.06;79.80;100536.03;1697087;83;21058;-83
2022/12/09 00:16:55;;;;;;;45.28;27.67;;;;;;;-2.09;79.87;100536.69;1741943;81;21054;-83
2022/12/09 00:19:22;;;;;;;36.58;25.12;;;;;;;-2.11;79.89;100538.27;1735087;81;21715;-88
2022/12/09 00:21:56;;;;;;;42.95;27.42;;;;;;;-2.12;79.93;100545.88;1704680;83;21322;-88
2022/12/09 00:24:22;;;;;;;41.28;26.07;;;;;;;-2.16;80.00;100547.34;1729191;82;21070;-84
2022/12/09 00:26:59;;;;;;;42.88;25.65;;;;;;;-2.17;80.02;100555.48;1739631;82;21023;-88
2022/12/09 00:29:26;;;;;;;40.83;24.75;;;;;;;-2.18;80.06;100552.78;1725909;81;21086;-87
2022/12/09 00:31:52;;;;;;;39.92;24.43;;;;;;;-2.20;80.07;100550.09;1723413;81;21610;-83
2022/12/09 00:34:19;;;;;;;35.73;23.47;;;;;;;-2.24;80.15;100549.37;1726994;81;21639;-85
2022/12/09 00:36:46;;;;;;;38.83;23.98;;;;;;;-2.27;80.19;100550.45;1730675;81;21042;-83
2022/12/09 00:39:13;;;;;;;36.83;24.27;;;;;;;-2.29;80.23;100555.90;1723131;81;21030;-83
2022/12/09 00:41:40;;;;;;;39.15;25.55;;;;;;;-2.32;80.23;100560.81;1731744;81;22112;-83
2022/12/09 00:44:07;;;;;;;39.03;24.70;;;;;;;-2.34;80.26;100559.81;1742605;81;21756;-83
2022/12/09 00:46:34;;;;;;;37.30;23.47;;;;;;;-2.36;80.26;100562.67;1744670;81;21082;-84
2022/12/09 00:49:01;;;;;;;38.53;24.37;;;;;;;-2.38;80.31;100562.95;1727047;81;22168;-83
2022/12/09 00:51:28;;;;;;;34.67;23.15;;;;;;;-2.41;80.30;100564.00;1731217;81;21121;-83
2022/12/09 00:53:55;;;;;;;37.53;24.00;;;;;;;-2.43;80.39;100566.87;1740428;81;21111;-88
2022/12/09 00:56:27;;;;;;;35.28;22.90;;;;;;;-2.44;80.44;100569.84;1730829;81;21746;-82
2022/12/09 00:58:54;;;;;;;32.65;21.55;;;;;;;-2.47;80.42;100572.19;1725521;81;21627;-89
2022/12/09 01:01:23;;;;;;;32.88;22.48;;;;;;;-2.48;80.46;100573.35;1723950;83;21138;-89
2022/12/09 01:03:52;;;;;;;31.27;21.07;;;;;;;-2.50;80.47;100573.23;1724885;81;21122;-89
2022/12/09 01:06:22;;;;;;;33.20;21.60;;;;;;;-2.51;80.55;100583.45;1728913;81;21983;-85
2022/12/09 01:08:48;;;;;;;35.28;22.13;;;;;;;-2.52;80.63;100582.53;1734247;81;22364;-85
2022/12/09 01:11:18;;;;;;;34.33;21.27;;;;;;;-2.53;80.69;100580.76;1722066;81;21057;-84
2022/12/09 01:13:46;;;;;;;33.88;21.55;;;;;;;-2.56;80.73;100578.83;1704552;82;21056;-84
2022/12/09 01:16:21;;;;;;;32.08;20.95;;;;;;;-2.56;80.75;100581.81;1729337;81;21592;-84
2022/12/09 01:18:52;;;;;;;35.30;22.07;;;;;;;-2.59;80.79;100579.91;1738045;81;21069;-84
2022/12/09 01:21:18;;;;;;;35.85;23.45;;;;;;;-2.60;80.83;100582.37;1714278;82;21839;-88
2022/12/09 01:23:45;;;;;;;37.90;24.57;;;;;;;-2.62;80.82;100583.53;1733333;81;21080;-88
2022/12/09 01:26:14;;;;;;;36.73;22.50;;;;;;;-2.63;80.82;100582.13;1733897;81;21105;-88
2022/12/09 01:28:41;;;;;;;37.35;23.92;;;;;;;-2.64;80.84;100583.81;1721344;82;22009;-84
2022/12/09 01:31:11;;;;;;;40.78;23.83;;;;;;;-2.62;80.86;100586.52;1731805;81;21062;-84
2022/12/09 01:33:38;;;;;;;34.90;23.47;;;;;;;-2.61;80.82;100589.21;1728387;81;21935;-89
2022/12/09 01:36:12;;;;;;;32.95;22.00;;;;;;;-2.62;80.76;100587.80;1744746;81;21033;-89
2022/12/09 01:38:39;;;;;;;35.88;22.25;;;;;;;-2.63;80.67;100585.63;1746435;80;21125;-89
2022/12/09 01:41:07;;;;;;;32.93;21.33;;;;;;;-2.65;80.68;100585.87;1723106;81;21067;-90
2022/12/09 01:43:34;;;;;;;31.95;21.05;;;;;;;-2.66;80.67;100579.34;1736855;81;21119;-84
2022/12/09 01:46:03;;;;;;;34.08;21.25;;;;;;;-2.67;80.71;100580.11;1721752;81;21808;-90
2022/12/09 01:48:34;;;;;;;31.07;21.60;;;;;;;-2.67;80.72;100582.28;1739509;81;21139;-87
2022/12/09 01:51:11;;;;;;;33.55;22.20;;;;;;;-2.70;80.63;100575.64;1674799;84;21583;-82
2022/12/09 01:53:43;;;;;;;33.78;22.95;;;;;;;-2.70;80.55;100586.31;1752184;81;21057;-86
2022/12/09 01:56:15;;;;;;;36.58;22.52;;;;;;;-2.72;80.56;100584.94;1718355;81;21510;-87
2022/12/09 01:58:43;;;;;;;32.45;21.82;;;;;;;-2.74;80.55;100586.10;1736683;81;21960;-86
2022/12/09 02:01:10;;;;;;;38.30;23.38;;;;;;;-2.73;80.58;100589.56;1716763;82;21102;-82
2022/12/09 02:03:37;;;;;;;34.30;22.73;;;;;;;-2.74;80.55;100590.33;1702745;81;21103;-87
2022/12/09 02:06:03;;;;;;;35.92;22.93;;;;;;;-2.75;80.46;100587.27;1739933;81;21070;-83
2022/12/09 02:08:31;;;;;;;35.60;24.07;;;;;;;-2.77;80.45;100582.39;1745896;81;21115;-85
2022/12/09 02:11:27;;;;;;;37.20;23.12;;;;;;;-2.78;80.45;100588.31;1760353;80;22802;-84
2022/12/09 02:14:23;;;;;;;34.78;22.30;;;;;;;-2.78;80.48;100584.45;1755050;80;21110;-84
2022/12/09 02:17:13;;;;;;;34.00;22.62;;;;;;;-2.80;80.43;100589.48;1772800;80;21056;-89
2022/12/09 02:19:52;;;;;;;37.60;22.90;;;;;;;-2.81;80.41;100587.70;1717010;81;21079;-83
2022/12/09 02:22:25;;;;;;;36.55;22.87;;;;;;;-2.84;80.30;100587.86;1744096;81;21120;-83
2022/12/09 02:25:02;;;;;;;38.53;25.70;;;;;;;-2.86;80.36;100581.30;1764416;81;21786;-87
2022/12/09 02:27:37;;;;;;;37.42;23.42;;;;;;;-2.88;80.25;100588.02;1771496;80;21054;-86
2022/12/09 02:30:11;;;;;;;33.98;20.80;;;;;;;-2.90;80.21;100587.41;1767984;80;21059;-87
2022/12/09 02:33:07;;;;;;;31.00;20.20;;;;;;;-2.92;80.14;100579.56;1767078;80;21301;-87
2022/12/09 02:35:54;;;;;;;34.23;22.73;;;;;;;-2.95;80.10;100584.09;1733526;81;21110;-86
2022/12/09 02:38:25;;;;;;;39.85;23.83;;;;;;;-2.98;80.16;100581.28;1755680;81;21787;-84
2022/12/09 02:41:09;;;;;;;33.73;22.22;;;;;;;-2.97;80.18;100588.61;1737060;80;21114;-84
2022/12/09 02:43:39;;;;;;;38.23;24.35;;;;;;;-3.01;80.09;100587.88;1740444;80;21062;-82
2022/12/09 02:46:06;;;;;;;32.03;20.80;;;;;;;-3.04;80.02;100587.26;1740237;81;21995;-84
2022/12/09 02:48:38;;;;;;;35.05;21.37;;;;;;;-3.06;80.01;100589.19;1757176;80;21444;-85
2022/12/09 02:51:09;;;;;;;29.87;20.62;;;;;;;-3.11;80.02;100590.54;1757459;80;21842;-85
2022/12/09 02:53:42;;;;;;;32.98;19.98;;;;;;;-3.15;80.16;100584.25;1772552;80;21046;-85
2022/12/09 02:56:08;;;;;;;31.45;20.17;;;;;;;-3.15;80.27;100582.97;1734978;81;21480;-83
2022/12/09 02:58:36;;;;;;;30.75;20.27;;;;;;;-3.16;80.27;100582.45;1735396;81;21567;-86
2022/12/09 03:01:03;;;;;;;32.08;20.88;;;;;;;-3.17;80.25;100586.70;1747245;80;21054;-88
2022/12/09 03:03:30;;;;;;;35.45;22.85;;;;;;;-3.18;80.20;100589.16;1764913;80;21859;-87
2022/12/09 03:06:08;;;;;;;33.80;21.70;;;;;;;-3.17;80.21;100588.39;1761645;80;21117;-83
2022/12/09 03:08:54;;;;;;;36.63;21.62;;;;;;;-3.20;80.04;100585.17;1761856;80;21059;-87
2022/12/09 03:11:21;;;;;;;38.28;21.55;;;;;;;-3.25;79.84;100589.05;1743164;80;21067;-86
2022/12/09 03:14:05;;;;;;;35.00;21.00;;;;;;;-3.32;79.78;100586.81;1696985;81;21487;-83
2022/12/09 03:16:53;;;;;;;;;;;;;;;-3.31;79.87;100589.87;1741475;80;22048;-83
2022/12/09 03:19:36;;;;;;;37.13;21.48;;;;;;;-3.34;79.76;100590.55;1747906;80;20775;-83
2022/12/09 03:22:06;;;;;;;36.25;22.55;;;;;;;-3.37;79.72;100591.59;1719848;81;21059;-83
2022/12/09 03:24:47;;;;;;;41.37;22.45;;;;;;;-3.41;79.67;100598.57;1715326;81;21025;-88
2022/12/09 03:27:17;;;;;;;37.30;22.85;;;;;;;-3.44;79.60;100602.18;1732433;81;21090;-82
2022/12/09 03:29:45;;;;;;;37.08;21.45;;;;;;;-3.53;79.44;100601.09;1748461;80;21913;-82
2022/12/09 03:32:12;;;;;;;40.90;23.40;;;;;;;-3.58;79.37;100604.08;1740773;81;21063;-82
2022/12/09 03:34:41;;;;;;;47.55;25.35;;;;;;;-3.60;79.36;100605.64;1732407;81;21059;-82
2022/12/09 03:37:07;;;;;;;64.47;30.75;;;;;;;-3.63;79.36;100607.95;1722123;81;21056;-81
2022/12/09 03:39:36;;;;;;;82.42;41.02;;;;;;;-3.67;79.27;100611.95;1738901;81;21075;-84
2022/12/09 03:42:07;;;;;;;43.30;25.15;;;;;;;-3.69;79.26;100608.37;1713689;82;21810;-85
2022/12/09 03:44:56;;;;;;;52.83;29.85;;;;;;;-3.71;79.29;100605.67;1715009;81;21009;-85
2022/12/09 03:47:23;;;;;;;89.52;46.25;;;;;;;-3.72;79.24;100608.11;1743064;81;21405;-85
2022/12/09 03:49:50;;;;;;;36.73;23.07;;;;;;;-3.73;79.22;100606.34;1745428;81;21582;-89
2022/12/09 03:52:28;;;;;;;91.55;48.00;;;;;;;-3.74;79.21;100613.53;1744485;81;20995;-86
2022/12/09 03:55:05;;;;;;;92.12;50.88;;;;;;;-3.79;79.12;100613.17;1736548;81;22476;-90
2022/12/09 03:57:33;;;;;;;38.17;23.70;;;;;;;-3.83;79.08;100618.86;1724338;81;21579;-86
2022/12/09 04:00:00;;;;;;;34.45;19.98;;;;;;;-3.85;79.02;100616.92;1734154;81;22224;-86
2022/12/09 04:02:28;;;;;;;32.65;20.32;;;;;;;-3.88;79.01;100620.16;1717074;82;21068;-90
2022/12/09 04:05:01;;;;;;;29.90;18.65;;;;;;;-3.91;79.02;100613.07;1733470;81;21036;-90
2022/12/09 04:07:28;;;;;;;29.23;18.70;;;;;;;-3.94;79.04;100613.25;1764149;80;21745;-86
2022/12/09 04:09:55;;;;;;;28.60;18.62;;;;;;;-3.93;79.25;100619.77;1729638;81;21062;-87
2022/12/09 04:12:22;;;;;;;40.50;24.30;;;;;;;-3.95;79.26;100617.47;1717310;81;21076;-88
2022/12/09 04:15:03;;;;;;;40.52;22.58;;;;;;;-3.93;79.38;100627.88;1725681;81;21074;-88
2022/12/09 04:17:38;;;;;;;31.42;19.00;;;;;;;-3.92;79.42;100624.55;1740948;81;21076;-88
2022/12/09 04:20:12;;;;;;;32.70;20.35;;;;;;;-3.92;79.33;100625.83;1725863;81;21838;-85
2022/12/09 04:22:47;;;;;;;28.27;18.98;;;;;;;-3.91;79.36;100633.64;1731977;81;21081;-85
2022/12/09 04:25:15;;;;;;;31.68;19.32;;;;;;;-3.91;79.22;100629.78;1700114;83;21102;-88
2022/12/09 04:27:47;;;;;;;30.30;18.23;;;;;;;-3.92;79.16;100637.01;1700323;83;21316;-91
2022/12/09 04:30:14;;;;;;;27.55;18.62;;;;;;;-3.93;79.09;100637.77;1718951;81;21097;-90
2022/12/09 04:32:41;;;;;;;28.00;18.20;;;;;;;-3.93;79.04;100626.59;1732606;81;22419;-90
2022/12/09 04:35:08;;;;;;;28.50;17.87;;;;;;;-3.96;78.98;100627.63;1677210;83;21122;-90
2022/12/09 04:37:36;;;;;;;29.20;17.87;;;;;;;-4.00;78.90;100632.90;1685342;82;21069;-86
2022/12/09 04:40:14;;;;;;;26.00;16.42;;;;;;;-4.03;78.95;100638.21;1701783;83;21068;-90
2022/12/09 04:42:41;;;;;;;25.10;16.12;;;;;;;-4.05;79.06;100643.59;1741663;81;21049;-90
2022/12/09 04:45:09;;;;;;;26.62;17.37;;;;;;;-4.08;79.06;100641.67;1702655;83;21898;-83
2022/12/09 04:47:36;;;;;;;24.82;15.88;;;;;;;-4.11;79.14;100636.27;1706654;83;22278;-88
2022/12/09 04:50:04;;;;;;;22.80;15.60;;;;;;;-4.09;79.14;100641.19;1705900;83;21066;-88
2022/12/09 04:52:33;;;;;;;23.83;15.28;;;;;;;-4.10;79.13;100647.97;1708406;83;21552;-88
2022/12/09 04:55:00;;;;;;;25.52;16.70;;;;;;;-4.12;79.09;100649.52;1710636;83;21081;-88
2022/12/09 04:57:28;;;;;;;22.48;15.58;;;;;;;-4.12;79.07;100652.09;1706229;83;21772;-83
2022/12/09 04:59:55;;;;;;;28.70;18.00;;;;;;;-4.13;79.01;100655.45;1701872;82;21076;-85
2022/12/09 05:02:22;;;;;;;27.95;18.15;;;;;;;-4.15;78.97;100651.86;1700608;83;21635;-86
2022/12/09 05:04:51;;;;;;;32.15;18.92;;;;;;;-4.17;78.93;100648.63;1706482;83;21058;-86
2022/12/09 05:07:18;;;;;;;28.35;17.57;;;;;;;-4.19;78.91;100657.89;1702967;82;21056;-85
2022/12/09 05:09:45;;;;;;;24.27;16.07;;;;;;;-4.20;78.90;100651.87;1729625;81;21809;-85
2022/12/09 05:12:11;;;;;;;22.95;15.05;;;;;;;-4.21;78.85;100653.02;1730435;81;21042;-82
2022/12/09 05:14:38;;;;;;;27.48;17.07;;;;;;;-4.26;78.81;100652.66;1725492;81;21091;-83
2022/12/09 05:17:06;;;;;;;25.70;16.52;;;;;;;-4.28;78.95;100650.32;1724820;81;21894;-87
2022/12/09 05:19:32;;;;;;;23.67;16.77;;;;;;;-4.26;78.97;100649.17;1717330;82;21096;-85
2022/12/09 05:21:59;;;;;;;24.25;15.98;;;;;;;-4.26;78.97;100647.52;1728780;81;22578;-85
2022/12/09 05:24:27;;;;;;;24.43;16.48;;;;;;;-4.23;78.97;100650.72;1737213;81;21013;-87
2022/12/09 05:26:54;;;;;;;28.50;16.82;;;;;;;-4.24;78.93;100645.97;1740700;81;21089;-85
2022/12/09 05:29:21;;;;;;;25.85;16.40;;;;;;;-4.24;78.90;100647.61;1727213;81;21348;-82
2022/12/09 05:31:50;;;;;;;25.27;16.20;;;;;;;-4.26;78.79;100651.38;1728044;81;21674;-81
2022/12/09 05:34:17;;;;;;;24.07;15.58;;;;;;;-4.29;78.69;100656.25;1738668;81;22752;-83
2022/12/09 05:36:46;;;;;;;25.05;15.65;;;;;;;-4.33;78.69;100647.38;1734947;81;21085;-84
2022/12/09 05:39:13;;;;;;;22.32;14.68;;;;;;;-4.35;78.70;100657.04;1728300;81;21066;-84
2022/12/09 05:41:39;;;;;;;22.10;15.00;;;;;;;-4.37;78.70;100656.91;1742076;81;21034;-80
2022/12/09 05:44:06;;;;;;;24.77;14.63;;;;;;;-4.40;78.67;100657.03;1734291;81;21055;-81
2022/12/09 05:46:33;;;;;;;23.65;15.18;;;;;;;-4.43;78.63;100661.91;1738213;81;21769;-82
2022/12/09 05:49:00;;;;;;;25.23;16.50;;;;;;;-4.44;78.62;100667.84;1742908;81;21030;-82
2022/12/09 05:51:28;;;;;;;25.45;17.00;;;;;;;-4.48;78.64;100665.79;1735521;81;21621;-85
2022/12/09 05:53:55;;;;;;;22.82;14.47;;;;;;;-4.51;78.66;100658.31;1745619;81;21042;-86
2022/12/09 05:56:23;;;;;;;28.27;16.82;;;;;;;-4.52;78.68;100665.52;1740318;81;21654;-84
2022/12/09 05:58:59;;;;;;;26.65;16.10;;;;;;;-4.54;78.67;100659.36;1740307;80;22614;-85
2022/12/09 06:01:26;;;;;;;26.60;16.48;;;;;;;-4.53;78.74;100661.14;1746844;80;21032;-85
2022/12/09 06:03:53;;;;;;;46.02;27.15;;;;;;;-4.51;78.69;100663.84;1733068;81;21146;-89
2022/12/09 06:06:21;;;;;;;30.10;18.80;;;;;;;-4.52;78.65;100668.09;1743190;81;21638;-86
2022/12/09 06:09:22;;;;;;;28.00;17.62;;;;;;;-4.53;78.56;100667.95;1718082;81;21076;-88
2022/12/09 06:11:50;;;;;;;27.00;17.10;;;;;;;-4.54;78.54;100668.75;1733355;80;22000;-89
2022/12/09 06:14:17;;;;;;;29.25;18.92;;;;;;;-4.54;78.54;100665.78;1696753;83;21072;-85
2022/12/09 06:16:44;;;;;;;30.20;18.00;;;;;;;-4.53;78.47;100676.95;1736375;80;21079;-86
2022/12/09 06:19:12;;;;;;;36.00;20.15;;;;;;;-4.51;78.58;100672.84;1769428;80;21805;-93
2022/12/09 06:21:51;;;;;;;32.70;19.25;;;;;;;-4.52;78.46;100675.80;1751698;82;21078;-94
2022/12/09 06:24:20;;;;;;;32.63;19.95;;;;;;;-4.51;78.44;100677.58;1749549;80;21804;-86
2022/12/09 06:26:48;;;;;;;30.85;18.30;;;;;;;-4.55;78.34;100668.22;1760705;80;21657;-87
2022/12/09 06:29:20;;;;;;;29.20;18.15;;;;;;;-4.56;78.23;100672.47;1759872;79;21551;-88
2022/12/09 06:31:50;;;;;;;26.25;16.65;;;;;;;-4.60;78.20;100677.20;1751434;80;21108;-86
2022/12/09 06:35:19;;;;;;;24.87;16.05;;;;;;;-4.64;78.24;100683.75;1734502;81;21532;-91
2022/12/09 06:37:51;;;;;;;22.58;15.20;;;;;;;-4.65;78.28;100678.11;1709710;81;42444;-85
2022/12/09 06:40:31;;;;;;;27.87;17.52;;;;;;;-4.66;78.40;100681.83;1711591;82;21038;-90
2022/12/09 06:43:30;;;;;;;26.93;16.60;;;;;;;-4.65;78.52;100679.40;1731781;81;21060;-90
2022/12/09 06:46:22;;;;;;;29.25;17.42;;;;;;;-4.66;78.45;100685.69;1734167;81;21323;-91
2022/12/09 06:48:49;;;;;;;27.10;16.90;;;;;;;-4.66;78.41;100688.25;1738306;81;22138;-85
2022/12/09 06:51:35;;;;;;;26.27;16.62;;;;;;;-4.65;78.45;100698.66;1752136;81;21890;-91
2022/12/09 06:54:18;;;;;;;34.43;19.95;;;;;;;-4.66;78.42;100702.38;1759632;81;21961;-91
2022/12/09 06:56:51;;;;;;;29.75;19.52;;;;;;;-4.68;78.41;100700.95;1733823;81;21730;-91
2022/12/09 06:59:18;;;;;;;30.60;19.55;;;;;;;-4.69;78.38;100710.34;1743122;81;22259;-85
2022/12/09 07:01:45;;;;;;;28.20;16.82;;;;;;;-4.69;78.42;100701.75;1732870;81;21000;-91
2022/12/09 07:04:13;;;;;;;24.77;16.60;;;;;;;-4.71;78.37;100698.12;1749231;81;21755;-85
2022/12/09 07:06:46;;;;;;;24.18;16.10;;;;;;;-4.73;78.37;100698.37;1748831;81;21019;-91
2022/12/09 07:10:10;;;;;;;27.93;16.15;;;;;;;-4.75;78.37;100699.55;1732938;81;21015;-91
2022/12/09 07:12:37;;;;;;;22.67;14.95;;;;;;;-4.75;78.43;100697.35;1734480;81;21658;-85
2022/12/09 07:15:05;;;;;;;24.25;15.00;;;;;;;-4.73;78.46;100697.09;1743588;81;21085;-85
2022/12/09 07:17:37;;;;;;;28.20;16.55;;;;;;;-4.73;78.49;100695.81;1740400;81;21764;-91
2022/12/09 07:20:38;;;;;;;24.77;14.85;;;;;;;-4.72;78.47;100697.63;1733782;81;21113;-93
2022/12/09 07:23:05;;;;;;;22.45;14.15;;;;;;;-4.72;78.46;100695.05;1736905;81;21608;-85
2022/12/09 07:25:32;;;;;;;26.00;15.40;;;;;;;-4.69;78.55;100687.23;1732367;81;21129;-84
2022/12/09 07:27:59;;;;;;;27.27;15.75;;;;;;;-4.66;78.50;100696.84;1745971;81;21597;-85
2022/12/09 07:30:26;;;;;;;26.07;15.15;;;;;;;-4.65;78.50;100693.52;1734466;81;21729;-85
2022/12/09 07:33:05;;;;;;;28.45;16.37;;;;;;;-4.63;78.57;100692.38;1742870;81;21024;-90
2022/12/09 07:36:15;;;;;;;28.07;17.12;;;;;;;-4.59;78.66;100688.89;1737304;81;21107;-91
2022/12/09 07:39:06;;;;;;;27.73;16.73;;;;;;;-4.50;78.74;100692.23;1729587;81;21013;-91
2022/12/09 07:41:53;;;;;;;32.53;18.57;;;;;;;-4.43;78.67;100692.73;1733316;82;21133;-92
2022/12/09 07:44:20;;;;;;;28.52;16.50;;;;;;;-4.40;78.64;100691.33;1685733;81;21769;-85
2022/12/09 07:46:46;;;;;;;28.17;16.93;;;;;;;-4.34;78.71;100694.79;1738399;81;21096;-85
2022/12/09 07:49:13;;;;;;;32.25;18.17;;;;;;;-4.31;78.70;100692.48;1749090;80;21085;-91
2022/12/09 07:51:46;;;;;;;34.78;18.10;;;;;;;-4.26;78.73;100686.43;1762007;80;21044;-85
2022/12/09 07:54:15;;;;;;;36.85;18.05;;;;;;;-4.24;78.70;100694.80;1732939;81;21057;-85
2022/12/09 07:57:01;;;;;;;39.73;18.70;;;;;;;-4.18;78.71;100698.27;1728336;81;22520;-92
2022/12/09 07:59:30;;;;;;;35.45;18.73;;;;;;;-4.16;78.71;100695.03;1722323;81;21629;-85
2022/12/09 08:01:57;;;;;;;28.45;17.10;;;;;;;-4.07;78.74;100693.98;1746637;81;21405;-85
2022/12/09 08:05:00;;;;;;;33.53;19.12;;;;;;;-3.99;78.79;100698.09;1736800;81;21316;-91
2022/12/09 08:07:50;;;;;;;31.13;19.20;;;;;;;-3.94;78.73;100699.38;1705606;84;21083;-91
2022/12/09 08:10:17;;;;;;;36.68;21.45;;;;;;;-3.99;78.72;100674.56;1743531;81;21761;-90
2022/12/09 08:12:44;;;;;;;36.70;20.90;;;;;;;-3.83;78.79;100699.87;1756622;81;21021;-85
2022/12/09 08:15:11;;;;;;;29.20;17.92;;;;;;;-3.75;78.81;100701.77;1745733;81;21112;-86
2022/12/09 08:17:38;;;;;;;37.28;21.77;;;;;;;-3.74;78.69;100706.12;1725987;81;21557;-87
2022/12/09 08:20:17;;;;;;;36.08;21.45;;;;;;;-3.71;78.75;100709.84;1754258;80;21040;-92
2022/12/09 08:23:49;;;;;;;37.20;21.25;;;;;;;-3.65;78.86;100715.88;1770519;81;21757;-91
2022/12/09 08:27:00;;;;;;;36.30;22.17;;;;;;;-3.56;78.86;100714.44;1771718;81;21618;-91
2022/12/09 08:33:45;;;;;;;34.83;20.60;;;;;;;-3.37;78.85;100726.70;1772583;81;21029;-91
2022/12/09 08:36:15;;;;;;;31.05;20.02;;;;;;;-3.27;78.75;100732.59;1766227;81;21548;-85
2022/12/09 08:39:05;;;;;;;32.08;18.55;;;;;;;-3.22;78.83;100729.60;1763156;81;21775;-91
2022/12/09 08:42:20;;;;;;;34.90;18.37;;;;;;;-3.14;78.78;100728.52;1765752;81;21281;-90
2022/12/09 08:48:27;;;;;;;32.67;19.02;;;;;;;-2.97;78.82;100727.67;1747086;81;21076;-87
2022/12/09 08:50:54;;;;;;;34.40;20.20;;;;;;;-2.87;78.80;100718.61;1735409;80;21952;-87
2022/12/09 08:53:21;;;;;;;36.77;23.45;;;;;;;-2.79;78.87;100719.20;1738320;81;22491;-86
2022/12/09 08:55:48;;;;;;;53.13;32.50;;;;;;;-2.67;78.95;100719.24;1725484;81;21057;-93
2022/12/09 08:58:15;;;;;;;64.95;34.75;;;;;;;-2.57;78.95;100714.92;1745514;81;21082;-86
2022/12/09 09:00:42;;;;;;;66.12;34.67;;;;;;;-2.46;78.94;100718.70;1733443;81;21049;-87
2022/12/09 09:03:10;;;;;;;64.72;32.23;;;;;;;-2.39;78.85;100722.25;1757846;81;21531;-86
2022/12/09 09:05:37;;;;;;;61.98;31.30;;;;;;;-2.30;78.82;100717.80;1712908;81;22551;-86
2022/12/09 09:08:05;;;;;;;66.30;32.85;;;;;;;-2.26;78.72;100717.23;1714899;81;21779;-86
2022/12/09 09:10:32;;;;;;;66.37;32.28;;;;;;;-2.17;78.75;100720.52;1749031;81;21025;-92
2022/12/09 09:13:13;;;;;;;62.67;32.45;;;;;;;-2.10;78.72;100711.56;1746450;81;21587;-93
2022/12/09 09:15:40;;;;;;;67.85;35.05;;;;;;;-2.01;78.74;100714.84;1742139;81;21384;-86
2022/12/09 09:18:07;;;;;;;69.65;38.25;;;;;;;-1.93;78.71;100705.08;1724050;82;21777;-87
2022/12/09 09:20:34;;;;;;;67.87;38.50;;;;;;;-1.89;78.55;100713.95;1735968;82;21571;-87
2022/12/09 09:23:01;;;;;;;60.80;35.65;;;;;;;-1.85;78.55;100714.27;1764340;80;21039;-83
2022/12/09 09:25:30;;;;;;;50.52;29.42;;;;;;;-1.80;78.48;100721.97;1744218;81;21067;-85
2022/12/09 09:27:56;;;;;;;48.78;28.27;;;;;;;-1.75;78.44;100718.42;1750629;81;21184;-85
2022/12/09 09:30:23;;;;;;;47.27;27.13;;;;;;;-1.70;78.36;100711.92;1736860;81;21754;-85
2022/12/09 09:32:50;;;;;;;44.98;26.95;;;;;;;-1.65;78.29;100708.00;1737349;81;21035;-85
2022/12/09 09:35:17;;;;;;;42.05;26.05;;;;;;;-1.63;78.19;100711.59;1751069;81;21081;-85
2022/12/09 09:37:53;;;;;;;49.65;27.22;;;;;;;-1.58;78.21;100712.83;1714344;82;21027;-90
2022/12/09 09:40:56;;;;;;;47.03;28.00;;;;;;;-1.49;78.26;100710.41;1706729;82;20993;-90
2022/12/09 09:43:30;;;;;;;48.80;28.67;;;;;;;-1.41;78.27;100715.34;1714999;81;21791;-84
2022/12/09 09:46:37;;;;;;;44.73;26.12;;;;;;;-1.33;78.12;100712.38;1753910;80;21500;-91
2022/12/09 09:50:02;;;;;;;48.95;27.07;;;;;;;-1.27;78.16;100702.12;1733440;81;21083;-93
2022/12/09 09:52:29;;;;;;;51.02;26.33;;;;;;;-1.25;77.91;100700.94;1723240;82;21089;-85
2022/12/09 09:55:26;;;;;;;52.17;27.02;;;;;;;-1.23;77.92;100700.25;1748149;81;21081;-92
2022/12/09 09:58:13;;;;;;;58.87;28.87;;;;;;;-1.17;78.02;100704.55;1734137;81;21837;-87
2022/12/09 10:05:36;;;;;;;46.73;26.93;;;;;;;-1.03;78.18;100705.55;1749877;82;21071;-93
2022/12/09 10:08:54;;;;;;;49.30;28.35;;;;;;;-0.90;78.16;100707.67;1750036;82;21031;-92
2022/12/09 10:12:00;;;;;;;49.18;28.35;;;;;;;-0.86;77.94;100708.02;1697881;83;21064;-92
2022/12/09 10:15:02;;;;;;;41.85;25.72;;;;;;;-0.86;77.85;100705.44;1703551;81;22118;-91
2022/12/09 10:18:09;;;;;;;43.15;26.25;;;;;;;-0.85;77.78;100707.61;1759009;81;21238;-90
2022/12/09 10:21:00;;;;;;;41.13;24.23;;;;;;;-0.87;77.69;100705.32;1743132;81;21061;-93
2022/12/09 10:27:52;;;;;;;33.55;21.97;;;;;;;-0.77;77.75;100719.77;1727079;82;21067;-91
2022/12/09 10:30:52;;;;;;;35.05;22.62;;;;;;;-0.66;77.81;100705.53;1728052;82;21787;-91
2022/12/09 10:33:32;;;;;;;36.38;22.37;;;;;;;-0.59;77.69;100714.59;1736469;81;21085;-85
2022/12/09 10:36:01;;;;;;;40.78;23.35;;;;;;;-0.61;77.53;100710.59;1743217;81;21054;-86
2022/12/09 10:38:29;;;;;;;33.80;21.73;;;;;;;-0.62;77.46;100710.12;1719954;81;21654;-86
2022/12/09 10:45:08;;;;;;;46.05;27.95;;;;;;;-0.62;77.49;100707.91;1728306;82;21828;-90
2022/12/09 10:51:27;;;;;;;84.03;46.80;;;;;;;-0.70;77.49;100706.09;1747629;81;21049;-85
2022/12/09 10:54:11;;;;;;;74.82;43.08;;;;;;;-0.71;77.60;100702.09;1748698;81;21054;-86
2022/12/09 10:56:41;;;;;;;70.10;37.75;;;;;;;-0.72;77.66;100705.09;1715834;81;21078;-93
2022/12/09 10:59:18;;;;;;;58.87;33.92;;;;;;;-0.70;77.70;100711.66;1726054;81;21788;-86
2022/12/09 11:02:01;;;;;;;47.08;28.07;;;;;;;-0.64;77.87;100710.78;1729161;81;21377;-86
2022/12/09 11:04:40;;;;;;;46.18;28.42;;;;;;;-0.53;78.03;100712.42;1692416;83;21054;-86
2022/12/09 11:12:00;;;;;;;55.80;34.25;;;;;;;-0.33;77.99;100716.38;1709447;81;21054;-91
2022/12/09 11:14:39;;;;;;;63.05;32.25;;;;;;;-0.20;77.89;100717.70;1727161;82;21820;-90
2022/12/09 11:17:18;;;;;;;55.25;31.35;;;;;;;-0.10;77.85;100707.97;1724877;81;21059;-86
2022/12/09 11:20:11;;;;;;;46.90;27.98;;;;;;;0.08;77.96;100720.84;1723403;81;21125;-91
2022/12/09 11:23:15;;;;;;;43.98;27.52;;;;;;;0.19;77.82;100719.86;1721285;83;21101;-91
2022/12/09 11:26:33;;;;;;;45.47;30.03;;;;;;;0.28;77.71;100723.84;1721736;82;21642;-91
2022/12/09 11:36:46;;;;;;;46.98;29.72;;;;;;;0.45;77.67;100727.16;1734135;81;21046;-86
2022/12/09 11:39:32;;;;;;;46.75;28.95;;;;;;;0.57;77.51;100724.45;1726816;81;21063;-86
2022/12/09 11:43:04;;;;;;;51.55;30.00;;;;;;;0.66;77.49;100713.39;1699672;82;21497;-93
2022/12/09 11:45:34;;;;;;;65.90;36.90;;;;;;;0.76;77.33;100713.16;1693561;83;21833;-86
2022/12/09 11:48:29;;;;;;;60.85;35.68;;;;;;;0.88;77.35;100714.73;1743562;81;21138;-91
2022/12/09 11:50:56;;;;;;;64.65;35.13;;;;;;;0.95;77.33;100710.44;1715672;82;21545;-86
2022/12/09 11:53:27;;;;;;;65.12;36.55;;;;;;;1.11;77.54;100708.42;1694956;82;21074;-91
2022/12/09 11:56:09;;;;;;;56.28;32.88;;;;;;;1.26;77.50;100713.62;1682660;83;21126;-85
2022/12/09 11:58:47;;;;;;;57.95;34.13;;;;;;;1.39;77.25;100711.39;1708708;82;22504;-85
2022/12/09 12:05:38;;;;;;;62.40;34.55;;;;;;;1.51;76.88;100710.85;1757208;81;21046;-90
2022/12/09 12:08:33;;;;;;;56.90;34.10;;;;;;;1.66;77.05;100710.88;1732072;81;21048;-92
2022/12/09 12:11:11;;;;;;;64.03;37.42;;;;;;;1.78;76.93;100713.30;1729358;81;21627;-88
2022/12/09 12:13:46;;;;;;;79.62;42.00;;;;;;;1.81;76.60;100717.39;1749180;81;21799;-85
2022/12/09 12:16:44;;;;;;;77.10;42.85;;;;;;;1.84;76.58;100717.17;1742418;81;21118;-86
2022/12/09 12:19:28;;;;;;;69.03;38.50;;;;;;;1.93;76.65;100714.20;1726854;81;21075;-92
2022/12/09 12:22:52;;;;;;;61.63;37.50;;;;;;;2.00;76.55;100718.08;1695303;84;21058;-91
2022/12/09 12:25:47;;;;;;;78.78;46.70;;;;;;;2.05;76.53;100717.95;1699821;83;21114;-85
2022/12/09 12:28:38;;;;;;;106.25;53.60;;;;;;;2.02;76.30;100719.94;1703522;82;21781;-88